Stillwater, OK

9:09 AM CDT on July 27, 2016 (GMT -0500)
APRSWXNET | | Change Station

Elev 961 ft 36.09 °N, 97.09 °W | Updated 24 minutes ago

Mostly Cloudy
Mostly Cloudy
77 °F
Feels Like 78 °F
N
2
Wind Variable Wind from SW
Gusts 0.0 mph

Today
High -- | Low -- °F
--% Chance of Precip.
Yesterday
High -- | Low -- °F
Precip. -- in
Pressure 29.96 in
Visibility 10.0 miles
Clouds Scattered Clouds 4100 ft
Mostly Cloudy 11000 ft
Heat Index 78 °F
Dew Point 74 °F
Humidity 91%
Rainfall in
Snow Depth Not available.
6:31 AM 8:37 PM
Last Quarter, 43% visible
METAR KSWO 271353Z 00000KT 10SM SCT041 BKN110 26/23 A3000 RMK AO2 SLP144 T02560228
Pressure 29.96 in
Visibility 10.0 miles
Clouds Scattered Clouds 4100 ft
Mostly Cloudy 11000 ft
Heat Index 78 °F
Dew Point 74 °F
Humidity 91%
Rainfall in
Snow Depth Not available.
6:31 AM 8:37 PM
Last Quarter, 43% visible
METAR KSWO 271353Z 00000KT 10SM SCT041 BKN110 26/23 A3000 RMK AO2 SLP144 T02560228

10-Day Weather Forecast

Almanac

Astronomy

Jul. 27, 2016 Rise Set
Actual Time
Civil Twilight
Nautical Twilight
Astronomical Twilight
Moon
Length of Visible Light
Length of Day
Tomorrow will be .
, % of the Moon is Illuminated

Today's Extremes

State Highs State Lows

Community

WunderPhotos

Upload Photos

1,927,848 photos uploaded!

WunderBlog® & News

Nearby

Air Quality

  Air Quality AQ Index Pollutant
Not available.

Snow Depth

Station Depth Elevation

Earthquake Activity

City Distance Mag. Time & Date
Minimum magnitude displayed is 2.5.

Coastal Water Temperatures

Place Temperature

Stations

Nearby Weather Stations

Station Location Temp. Windchill Dew Point Humidity Wind Precip. Elev Updated Type
                   

Watches & Warnings

There are currently no watches in effect.